createdAt,value
2022-11-18T00:01:12.978Z,5.53
2022-11-18T00:03:40.867Z,4.87
2022-11-18T00:06:10.461Z,8.70
2022-11-18T00:08:37.084Z,8.43
2022-11-18T00:11:08.621Z,10.33
2022-11-18T00:13:55.316Z,3.87
2022-11-18T00:16:22.243Z,3.60
2022-11-18T00:18:48.841Z,4.90
2022-11-18T00:21:15.561Z,6.27
2022-11-18T00:23:42.129Z,3.57
2022-11-18T00:26:12.335Z,5.50
2022-11-18T00:28:39.713Z,4.63
2022-11-18T00:31:09.223Z,5.00
2022-11-18T00:33:36.978Z,9.20
2022-11-18T00:36:10.036Z,4.63
2022-11-18T00:38:36.728Z,4.97
2022-11-18T00:41:05.829Z,6.60
2022-11-18T00:43:32.749Z,6.07
2022-11-18T00:45:59.486Z,6.67
2022-11-18T00:48:26.329Z,8.43
2022-11-18T00:50:55.170Z,6.53
2022-11-18T00:53:23.256Z,6.13
2022-11-18T00:55:50.599Z,8.57
2022-11-18T00:58:17.916Z,6.37
2022-11-18T01:00:46.572Z,6.33
2022-11-18T01:03:13.258Z,7.77
2022-11-18T01:05:40.617Z,6.23
2022-11-18T01:08:09.622Z,5.37
2022-11-18T01:10:36.908Z,8.07
2022-11-18T01:13:19.682Z,8.47
2022-11-18T01:15:58.109Z,7.83
2022-11-18T01:18:27.576Z,5.93
2022-11-18T01:20:54.377Z,3.53
2022-11-18T01:23:21.107Z,6.23
2022-11-18T01:25:49.561Z,6.30
2022-11-18T01:28:23.198Z,5.27
2022-11-18T01:30:50.354Z,7.10
2022-11-18T01:33:16.987Z,4.27
2022-11-18T01:35:44.334Z,6.80
2022-11-18T01:38:12.401Z,6.57
2022-11-18T01:40:39.729Z,4.20
2022-11-18T01:43:18.941Z,6.57
2022-11-18T01:45:48.205Z,5.50
2022-11-18T01:48:28.794Z,5.20
2022-11-18T01:51:02.597Z,6.20
2022-11-18T01:53:35.598Z,8.40
2022-11-18T01:56:07.068Z,5.17
2022-11-18T01:58:41.534Z,6.80
2022-11-18T02:01:08.528Z,6.57
2022-11-18T02:03:35.853Z,5.87
2022-11-18T02:06:04.797Z,6.03
2022-11-18T02:08:32.607Z,4.20
2022-11-18T02:10:59.620Z,5.37
2022-11-18T02:13:26.643Z,5.30
2022-11-18T02:16:15.692Z,6.43
2022-11-18T02:18:45.115Z,5.87
2022-11-18T02:22:00.245Z,5.33
2022-11-18T02:24:34.206Z,8.13
2022-11-18T02:27:22.528Z,4.33
2022-11-18T02:29:58.712Z,6.80
2022-11-18T02:32:32.061Z,6.97
2022-11-18T02:35:24.553Z,4.20
2022-11-18T02:37:56.552Z,9.47
2022-11-18T02:40:39.924Z,4.97
2022-11-18T02:43:32.488Z,6.10
2022-11-18T02:46:05.408Z,7.83
2022-11-18T02:48:35.154Z,4.63
2022-11-18T02:51:05.695Z,8.87
2022-11-18T02:53:34.797Z,11.43
2022-11-18T02:56:03.747Z,7.07
2022-11-18T02:58:30.474Z,7.33
2022-11-18T03:01:00.189Z,6.57
2022-11-18T03:03:29.815Z,7.63
2022-11-18T03:06:31.845Z,3.97
2022-11-18T03:09:15.801Z,5.13
2022-11-18T03:11:55.607Z,7.27
2022-11-18T03:14:37.224Z,5.43
2022-11-18T03:17:17.570Z,2.97
2022-11-18T03:19:53.258Z,5.67
2022-11-18T03:22:33.508Z,5.60
2022-11-18T03:25:09.016Z,5.33
2022-11-18T03:28:01.797Z,5.40
2022-11-18T03:30:31.000Z,5.83
2022-11-18T03:33:11.059Z,8.30
2022-11-18T03:35:43.311Z,8.23
2022-11-18T03:38:15.758Z,7.13
2022-11-18T03:40:50.240Z,3.43
2022-11-18T03:43:21.663Z,5.30
2022-11-18T03:45:52.431Z,4.87
2022-11-18T03:48:31.875Z,4.60
2022-11-18T03:51:02.611Z,4.50
2022-11-18T03:53:34.789Z,4.50
2022-11-18T03:56:17.094Z,4.40
2022-11-18T03:59:02.017Z,2.97
2022-11-18T04:01:35.144Z,3.70
2022-11-18T04:04:01.972Z,3.27
2022-11-18T04:06:38.697Z,3.20
2022-11-18T04:09:13.865Z,4.77
2022-11-18T04:12:04.961Z,3.43
2022-11-18T04:14:40.525Z,2.80
2022-11-18T04:17:16.662Z,4.07
2022-11-18T04:19:43.356Z,3.57
2022-11-18T04:22:11.523Z,3.47
2022-11-18T04:24:38.654Z,4.77
2022-11-18T04:27:06.593Z,5.03
2022-11-18T04:29:34.173Z,7.17
2022-11-18T04:32:02.392Z,3.33
2022-11-18T04:34:30.625Z,4.27
2022-11-18T04:36:57.814Z,3.87
2022-11-18T04:39:24.876Z,3.03
2022-11-18T04:41:57.465Z,3.93
2022-11-18T04:44:27.932Z,5.53
2022-11-18T04:46:55.776Z,5.53
2022-11-18T04:49:23.044Z,5.97
2022-11-18T04:51:50.452Z,5.80
2022-11-18T04:54:18.057Z,5.57
2022-11-18T04:56:49.068Z,4.57
2022-11-18T04:59:21.519Z,4.53
2022-11-18T05:01:49.338Z,5.77
2022-11-18T05:04:18.573Z,3.50
2022-11-18T05:06:45.351Z,7.67
2022-11-18T05:09:12.239Z,5.60
2022-11-18T05:11:57.374Z,6.63
2022-11-18T05:14:27.861Z,6.63
2022-11-18T05:16:56.318Z,6.87
2022-11-18T05:19:23.375Z,11.90
2022-11-18T05:21:50.188Z,6.43
2022-11-18T05:24:17.080Z,5.67
2022-11-18T05:26:43.644Z,4.63
2022-11-18T05:29:10.671Z,6.77
2022-11-18T05:31:37.539Z,6.30
2022-11-18T05:34:04.297Z,6.10
2022-11-18T05:36:30.884Z,6.93
2022-11-18T05:39:00.678Z,7.60
2022-11-18T05:41:45.928Z,5.70
2022-11-18T05:44:12.667Z,5.17
2022-11-18T05:46:39.509Z,14.07
2022-11-18T05:49:06.188Z,26.57
2022-11-18T05:51:33.265Z,8.10
2022-11-18T05:54:02.898Z,10.70
2022-11-18T05:56:35.540Z,10.13
2022-11-18T05:59:02.568Z,7.63
2022-11-18T06:01:35.860Z,7.93
2022-11-18T06:04:08.425Z,9.87
2022-11-18T06:06:35.368Z,10.90
2022-11-18T06:09:08.278Z,5.80
2022-11-18T06:11:43.257Z,8.80
2022-11-18T06:14:15.189Z,7.73
2022-11-18T06:16:47.505Z,8.23
2022-11-18T06:19:14.590Z,6.87
2022-11-18T06:21:41.767Z,9.47
2022-11-18T06:24:09.908Z,11.20
2022-11-18T06:26:37.680Z,9.80
2022-11-18T06:29:07.308Z,7.23
2022-11-18T06:31:34.040Z,7.53
2022-11-18T06:34:01.022Z,7.47
2022-11-18T06:36:27.583Z,7.67
2022-11-18T06:38:54.572Z,5.97
2022-11-18T06:41:21.182Z,6.63
2022-11-18T06:43:47.855Z,6.63
2022-11-18T06:46:36.119Z,7.63
2022-11-18T06:49:03.526Z,9.43
2022-11-18T06:51:30.872Z,8.30
2022-11-18T06:53:57.852Z,9.03
2022-11-18T06:56:24.938Z,6.83
2022-11-18T06:58:55.935Z,10.00
2022-11-18T07:01:25.991Z,6.43
2022-11-18T07:03:53.093Z,6.87
2022-11-18T07:06:22.290Z,6.03
2022-11-18T07:08:49.999Z,7.00
2022-11-18T07:11:19.152Z,8.87
2022-11-18T07:13:46.628Z,6.83
2022-11-18T07:16:15.785Z,10.77
2022-11-18T07:18:43.740Z,7.17
2022-11-18T07:21:18.807Z,6.53
2022-11-18T07:23:45.845Z,8.83
2022-11-18T07:26:13.148Z,9.90
2022-11-18T07:28:40.219Z,10.17
2022-11-18T07:31:07.191Z,8.03
2022-11-18T07:33:34.560Z,11.87
2022-11-18T07:36:12.058Z,8.47
2022-11-18T07:38:39.328Z,9.20
2022-11-18T07:41:09.869Z,11.87
2022-11-18T07:43:37.769Z,9.40
2022-11-18T07:46:16.110Z,9.97
2022-11-18T07:48:44.685Z,13.33
2022-11-18T07:51:12.163Z,9.17
2022-11-18T07:53:38.849Z,11.07
2022-11-18T07:56:07.993Z,10.77
2022-11-18T07:58:35.392Z,12.87
2022-11-18T08:01:20.532Z,12.87
2022-11-18T08:03:47.586Z,20.03
2022-11-18T08:06:16.416Z,11.37
2022-11-18T08:08:43.664Z,10.67
2022-11-18T08:11:18.862Z,14.00
2022-11-18T08:13:48.413Z,15.63
2022-11-18T08:16:20.149Z,9.87
2022-11-18T08:18:47.583Z,11.83
2022-11-18T08:21:15.431Z,14.03
2022-11-18T08:23:43.368Z,13.40
2022-11-18T08:26:13.789Z,16.93
2022-11-18T08:28:42.497Z,14.93
2022-11-18T08:31:17.461Z,13.47
2022-11-18T08:33:44.274Z,13.50
2022-11-18T08:36:17.494Z,17.03
2022-11-18T08:38:44.386Z,13.00
2022-11-18T08:41:13.761Z,11.83
2022-11-18T08:43:40.780Z,11.60
2022-11-18T08:46:07.465Z,13.77
2022-11-18T08:48:34.058Z,13.37
2022-11-18T08:51:01.247Z,13.47
2022-11-18T08:53:28.341Z,64.33
2022-11-18T08:55:58.910Z,17.93
2022-11-18T08:58:26.370Z,15.93
2022-11-18T09:00:53.410Z,13.63
2022-11-18T09:03:20.504Z,20.37
2022-11-18T09:05:47.519Z,16.80
2022-11-18T09:08:15.539Z,21.00
2022-11-18T09:10:42.162Z,19.70
2022-11-18T09:13:33.714Z,16.07
2022-11-18T09:15:59.189Z,16.33
2022-11-18T09:18:26.392Z,21.20
2022-11-18T09:20:55.949Z,18.03
2022-11-18T09:23:23.054Z,18.17
2022-11-18T09:25:56.680Z,18.17
2022-11-18T09:28:23.728Z,20.80
2022-11-18T09:30:50.737Z,23.73
2022-11-18T09:33:20.548Z,16.40
2022-11-18T09:35:47.443Z,16.10
2022-11-18T09:38:14.617Z,16.83
2022-11-18T09:40:55.624Z,15.23
2022-11-18T09:43:56.332Z,15.60
2022-11-18T09:46:30.096Z,17.77
2022-11-18T09:49:12.719Z,14.57
2022-11-18T09:51:42.257Z,17.83
2022-11-18T09:54:12.291Z,13.80
2022-11-18T09:56:40.928Z,15.90
2022-11-18T09:59:08.084Z,13.53
2022-11-18T10:01:37.091Z,18.40
2022-11-18T10:04:03.989Z,16.03
2022-11-18T10:06:33.920Z,19.47
2022-11-18T10:09:26.918Z,16.30
2022-11-18T10:12:02.615Z,17.73
2022-11-18T10:14:53.366Z,13.80
2022-11-18T10:17:41.315Z,23.37
2022-11-18T10:20:35.807Z,16.83
2022-11-18T10:23:13.973Z,14.57
2022-11-18T10:25:40.548Z,15.13
2022-11-18T10:28:33.169Z,15.40
2022-11-18T10:31:08.391Z,14.50
2022-11-18T10:33:35.891Z,14.93
2022-11-18T10:36:25.815Z,18.47
2022-11-18T10:39:12.888Z,16.53
2022-11-18T10:42:02.130Z,13.93
2022-11-18T10:44:31.809Z,14.00
2022-11-18T10:47:22.066Z,15.83
2022-11-18T10:49:49.069Z,13.77
2022-11-18T10:52:16.196Z,14.90
2022-11-18T10:54:43.257Z,11.87
2022-11-18T10:57:25.081Z,13.07
2022-11-18T10:59:55.020Z,11.67
2022-11-18T11:02:31.088Z,12.67
2022-11-18T11:04:59.491Z,16.23
2022-11-18T11:07:44.158Z,14.50
2022-11-18T11:10:10.719Z,14.17
2022-11-18T11:12:48.659Z,15.13
2022-11-18T11:15:36.162Z,13.27
2022-11-18T11:18:42.321Z,11.37
2022-11-18T11:21:13.231Z,18.97
2022-11-18T11:23:40.742Z,14.50
2022-11-18T11:29:50.499Z,18.13
2022-11-18T11:32:31.171Z,15.10
2022-11-18T11:35:21.779Z,13.30
2022-11-18T11:37:58.511Z,15.47
2022-11-18T11:40:39.710Z,11.43
2022-11-18T11:43:31.272Z,10.40
2022-11-18T11:46:15.899Z,16.83
2022-11-18T11:48:42.900Z,7.83
2022-11-18T11:51:16.770Z,5.40
2022-11-18T11:54:06.373Z,9.03
2022-11-18T11:56:35.786Z,7.27
2022-11-18T11:59:30.073Z,5.17
2022-11-18T12:02:38.616Z,5.73
2022-11-18T12:05:34.450Z,6.83
2022-11-18T12:08:03.591Z,5.53
2022-11-18T12:10:54.711Z,6.13
2022-11-18T12:13:40.639Z,6.43
2022-11-18T12:16:21.994Z,7.50
2022-11-18T12:19:08.449Z,5.03
2022-11-18T12:21:46.971Z,6.23
2022-11-18T12:24:42.456Z,4.57
2022-11-18T12:27:13.926Z,4.53
2022-11-18T12:30:01.610Z,5.53
2022-11-18T12:32:45.213Z,7.80
2022-11-18T12:35:12.179Z,4.70
2022-11-18T12:37:40.376Z,6.33
2022-11-18T12:40:09.471Z,5.27
2022-11-18T12:43:03.219Z,4.17
2022-11-18T12:45:41.943Z,6.40
2022-11-18T12:48:27.306Z,5.70
2022-11-18T12:51:00.714Z,4.77
2022-11-18T12:53:44.890Z,4.10
2022-11-18T12:56:17.523Z,5.00
2022-11-18T12:58:57.628Z,6.73
2022-11-18T13:01:30.557Z,5.00
2022-11-18T13:04:19.859Z,4.53
2022-11-18T13:06:47.454Z,4.47
2022-11-18T13:09:20.487Z,5.30
2022-11-18T13:11:52.861Z,3.80
2022-11-18T13:14:58.054Z,4.17
2022-11-18T13:17:58.742Z,3.60
2022-11-18T13:20:33.040Z,3.77
2022-11-18T13:23:38.246Z,7.57
2022-11-18T13:26:31.530Z,3.73
2022-11-18T13:29:20.594Z,3.60
2022-11-18T13:32:20.240Z,3.63
2022-11-18T13:34:50.991Z,4.77
2022-11-18T13:37:24.729Z,3.83
2022-11-18T13:39:51.921Z,3.67
2022-11-18T13:42:18.983Z,3.87
2022-11-18T13:44:52.637Z,2.57
2022-11-18T13:47:26.616Z,3.70
2022-11-18T13:50:11.341Z,3.00
2022-11-18T13:56:33.290Z,3.77
2022-11-18T13:59:16.821Z,2.70
2022-11-18T14:01:45.610Z,1.83
2022-11-18T14:04:21.958Z,2.50
2022-11-18T14:06:49.086Z,2.43
2022-11-18T14:09:30.042Z,1.80
2022-11-18T14:12:21.607Z,2.40
2022-11-18T14:14:48.594Z,2.77
2022-11-18T14:17:28.136Z,2.17
2022-11-18T14:19:57.073Z,3.30
2022-11-18T14:22:31.215Z,1.93
2022-11-18T14:25:14.833Z,2.30
2022-11-18T14:27:50.890Z,2.27
2022-11-18T14:30:40.032Z,2.03
2022-11-18T14:33:22.107Z,2.43
2022-11-18T14:36:08.940Z,3.93
2022-11-18T14:38:47.632Z,1.77
2022-11-18T14:41:45.040Z,2.13
2022-11-18T14:44:15.638Z,3.77
2022-11-18T14:46:44.614Z,3.00
2022-11-18T14:49:15.300Z,2.87
2022-11-18T14:51:42.316Z,3.37
2022-11-18T14:54:17.212Z,2.57
2022-11-18T14:56:48.859Z,3.03
2022-11-18T14:59:17.605Z,3.47
2022-11-18T15:01:45.266Z,3.13
2022-11-18T15:04:12.504Z,8.80
2022-11-18T15:06:40.062Z,3.23
2022-11-18T15:09:10.441Z,3.20
2022-11-18T15:11:37.520Z,3.03
2022-11-18T15:14:04.852Z,5.97
2022-11-18T15:16:33.039Z,2.13
2022-11-18T15:19:02.691Z,3.60
2022-11-18T15:21:30.194Z,3.73
2022-11-18T15:23:57.227Z,4.03
2022-11-18T15:26:30.415Z,3.77
2022-11-18T15:28:57.988Z,3.00
2022-11-18T15:31:25.354Z,2.60
2022-11-18T15:33:52.852Z,3.50
2022-11-18T15:36:24.015Z,3.37
2022-11-18T15:38:51.521Z,3.13
2022-11-18T15:41:23.758Z,2.23
2022-11-18T15:43:51.285Z,2.80
2022-11-18T15:46:20.034Z,2.03
2022-11-18T15:48:48.193Z,2.93
2022-11-18T15:51:15.585Z,2.57
2022-11-18T15:53:42.594Z,2.73
2022-11-18T15:56:24.588Z,3.00
2022-11-18T15:59:05.667Z,4.30
2022-11-18T16:01:38.103Z,2.00
2022-11-18T16:04:06.269Z,2.30
2022-11-18T16:06:33.335Z,2.00
2022-11-18T16:09:00.809Z,3.22
2022-11-18T16:11:47.452Z,1.93
2022-11-18T16:14:17.900Z,1.67
2022-11-18T16:16:48.234Z,1.57
2022-11-18T16:19:17.983Z,1.07
2022-11-18T16:21:47.356Z,1.90
2022-11-18T16:24:21.176Z,1.20
2022-11-18T16:26:48.722Z,2.03
2022-11-18T16:29:17.500Z,0.97
2022-11-18T16:31:50.502Z,1.20
2022-11-18T16:34:19.924Z,0.80
2022-11-18T16:36:49.339Z,1.00
2022-11-18T16:39:18.463Z,1.00
2022-11-18T16:41:46.414Z,1.80
2022-11-18T16:44:17.073Z,0.83
2022-11-18T16:46:48.712Z,0.80
2022-11-18T16:49:17.213Z,1.73
2022-11-18T16:51:46.109Z,1.30
2022-11-18T16:54:21.192Z,1.10
2022-11-18T16:56:48.372Z,1.00
2022-11-18T16:59:18.629Z,3.13
2022-11-18T17:01:46.490Z,1.10
2022-11-18T17:04:13.949Z,0.80
2022-11-18T17:06:41.502Z,1.00
2022-11-18T17:09:12.469Z,0.83
2022-11-18T17:11:39.451Z,0.80
2022-11-18T17:14:06.460Z,3.40
2022-11-18T17:16:33.129Z,2.00
2022-11-18T17:19:02.862Z,1.13
2022-11-18T17:21:31.927Z,1.20
2022-11-18T17:23:59.321Z,2.00
2022-11-18T17:26:27.610Z,0.60
2022-11-18T17:28:57.598Z,0.93
2022-11-18T17:31:25.273Z,1.03
2022-11-18T17:33:54.423Z,1.57
2022-11-18T17:36:23.696Z,1.07
2022-11-18T17:38:52.422Z,1.10
2022-11-18T17:41:39.795Z,2.27
2022-11-18T17:44:07.941Z,3.20
2022-11-18T17:46:38.188Z,1.57
2022-11-18T17:49:07.719Z,1.13
2022-11-18T17:51:34.711Z,2.20
2022-11-18T17:54:01.472Z,1.03
2022-11-18T17:56:28.525Z,1.70
2022-11-18T17:58:55.701Z,1.43
2022-11-18T18:01:23.259Z,1.70
2022-11-18T18:03:50.428Z,1.63
2022-11-18T18:06:18.953Z,1.43
2022-11-18T18:08:46.000Z,1.40
2022-11-18T18:11:15.327Z,1.13
2022-11-18T18:14:01.497Z,1.70
2022-11-18T18:16:30.224Z,1.73
2022-11-18T18:18:58.412Z,1.63
2022-11-18T18:21:25.491Z,1.30
2022-11-18T18:23:52.943Z,3.07
2022-11-18T18:26:19.995Z,3.37
2022-11-18T18:28:47.109Z,2.40
2022-11-18T18:31:15.510Z,1.93
2022-11-18T18:33:42.674Z,1.87
2022-11-18T18:36:12.470Z,1.83
2022-11-18T18:38:40.107Z,1.77
2022-11-18T18:41:27.005Z,2.83
2022-11-18T18:43:54.109Z,2.87
2022-11-18T18:46:29.845Z,2.30
2022-11-18T18:49:12.025Z,2.30
2022-11-18T18:51:41.045Z,2.10
2022-11-18T18:54:10.732Z,3.33
2022-11-18T18:56:38.533Z,3.07
2022-11-18T18:59:05.696Z,3.37
2022-11-18T19:01:33.486Z,2.40
2022-11-18T19:04:02.730Z,4.97
2022-11-18T19:06:53.254Z,1.80
2022-11-18T19:09:22.015Z,3.70
2022-11-18T19:12:07.629Z,3.63
2022-11-18T19:14:35.468Z,3.00
2022-11-18T19:17:09.504Z,2.37
2022-11-18T19:19:56.116Z,3.37
2022-11-18T19:22:23.052Z,3.33
2022-11-18T19:24:51.138Z,2.67
2022-11-18T19:27:19.140Z,2.77
2022-11-18T19:29:45.866Z,2.77
2022-11-18T19:32:12.919Z,3.03
2022-11-18T19:34:39.595Z,2.97
2022-11-18T19:37:06.609Z,2.63
2022-11-18T19:39:33.434Z,2.50
2022-11-18T19:42:00.421Z,4.57
2022-11-18T19:44:27.489Z,3.23
2022-11-18T19:46:54.459Z,2.23
2022-11-18T19:49:21.880Z,3.60
2022-11-18T19:51:49.031Z,2.87
2022-11-18T19:54:15.603Z,2.50
2022-11-18T19:56:42.635Z,3.17
2022-11-18T19:59:11.336Z,1.97
2022-11-18T20:01:38.682Z,2.53
2022-11-18T20:04:05.926Z,4.77
2022-11-18T20:06:34.947Z,3.23
2022-11-18T20:09:02.521Z,2.10
2022-11-18T20:11:29.602Z,2.30
2022-11-18T20:13:56.328Z,2.20
2022-11-18T20:16:24.978Z,2.20
2022-11-18T20:19:00.141Z,3.30
2022-11-18T20:21:28.248Z,2.57
2022-11-18T20:23:57.374Z,2.70
2022-11-18T20:26:26.360Z,2.03
2022-11-18T20:28:57.426Z,2.30
2022-11-18T20:31:25.432Z,2.33
2022-11-18T20:33:54.289Z,1.83
2022-11-18T20:36:21.340Z,2.10
2022-11-18T20:38:52.591Z,5.13
2022-11-18T20:41:20.052Z,1.90
2022-11-18T20:43:48.017Z,1.97
2022-11-18T20:46:20.385Z,1.73
2022-11-18T20:48:48.521Z,1.63
2022-11-18T20:51:17.537Z,2.20
2022-11-18T20:53:44.828Z,2.07
2022-11-18T20:56:17.267Z,3.50
2022-11-18T20:58:44.570Z,1.50
2022-11-18T21:01:17.128Z,2.03
2022-11-18T21:03:48.612Z,1.27
2022-11-18T21:06:15.743Z,1.37
2022-11-18T21:08:42.856Z,2.10
2022-11-18T21:11:12.519Z,2.80
2022-11-18T21:13:58.699Z,2.13
2022-11-18T21:16:26.315Z,2.23
2022-11-18T21:18:53.502Z,2.23
2022-11-18T21:21:38.602Z,2.77
2022-11-18T21:24:05.669Z,1.50
2022-11-18T21:26:34.361Z,1.73
2022-11-18T21:29:03.545Z,1.80
2022-11-18T21:31:31.109Z,2.20
2022-11-18T21:33:57.740Z,2.57
2022-11-18T21:36:26.086Z,3.67
2022-11-18T21:38:53.086Z,3.30
2022-11-18T21:41:19.913Z,4.47
2022-11-18T21:46:38.761Z,2.50
2022-11-18T21:49:06.077Z,4.47
2022-11-18T21:51:33.923Z,5.43
2022-11-18T21:54:01.144Z,6.50
2022-11-18T21:56:30.698Z,7.87
2022-11-18T21:58:59.658Z,7.20
2022-11-18T22:01:30.741Z,7.70
2022-11-18T22:03:59.503Z,8.87
2022-11-18T22:06:29.639Z,9.17
2022-11-18T22:08:56.649Z,7.70
2022-11-18T22:11:24.048Z,10.60
2022-11-18T22:13:51.980Z,7.40
2022-11-18T22:16:22.155Z,8.53
2022-11-18T22:18:55.027Z,9.53
2022-11-18T22:21:26.307Z,6.83
2022-11-18T22:23:56.140Z,8.13
2022-11-18T22:26:23.130Z,9.13
2022-11-18T22:28:53.767Z,9.10
2022-11-18T22:31:21.776Z,9.43
2022-11-18T22:33:52.258Z,8.37
2022-11-18T22:36:21.453Z,12.97
2022-11-18T22:38:49.033Z,9.23
2022-11-18T22:41:43.122Z,10.63
2022-11-18T22:44:11.704Z,9.20
2022-11-18T22:46:39.943Z,10.77
2022-11-18T22:49:07.852Z,11.60
2022-11-18T22:51:36.796Z,12.60
2022-11-18T22:56:51.621Z,13.00
2022-11-18T22:59:19.104Z,11.80
2022-11-18T23:01:45.781Z,12.60
2022-11-18T23:04:12.819Z,12.87
2022-11-18T23:06:39.816Z,8.97
2022-11-18T23:09:06.812Z,12.57
2022-11-18T23:11:52.655Z,13.80
2022-11-18T23:14:19.711Z,10.20
2022-11-18T23:16:46.755Z,13.13
2022-11-18T23:19:15.467Z,11.80
2022-11-18T23:21:43.284Z,14.87
2022-11-18T23:24:14.798Z,13.80
2022-11-18T23:26:41.883Z,14.87
2022-11-18T23:29:09.913Z,13.00
2022-11-18T23:31:36.937Z,14.30
2022-11-18T23:34:03.954Z,14.63
2022-11-18T23:36:30.961Z,15.43
2022-11-18T23:38:57.544Z,18.30
2022-11-18T23:41:24.122Z,14.50
2022-11-18T23:43:52.008Z,15.33
2022-11-18T23:46:19.323Z,18.10
2022-11-18T23:48:46.759Z,16.97
2022-11-18T23:51:18.536Z,21.07
2022-11-18T23:53:47.795Z,18.13
2022-11-18T23:56:16.431Z,19.63
2022-11-18T23:58:45.649Z,21.10
